sensor_id;sensor_type;location;lat;lon;timestamp;pressure;altitude;pressure_sealevel;temperature;humidity
73240;BME280;61452;40.054;4.110;2023-11-21T00:02:31;101708.75;;;19.38;100.00
73240;BME280;61452;40.054;4.110;2023-11-21T00:07:33;101698.34;;;19.35;100.00
73240;BME280;61452;40.054;4.110;2023-11-21T00:12:36;101696.53;;;19.35;100.00
73240;BME280;61452;40.054;4.110;2023-11-21T00:17:38;101687.81;;;19.33;100.00
73240;BME280;61452;40.054;4.110;2023-11-21T00:22:41;101693.97;;;19.34;100.00
73240;BME280;61452;40.054;4.110;2023-11-21T00:27:43;101679.72;;;19.35;100.00
73240;BME280;61452;40.054;4.110;2023-11-21T00:32:46;101685.03;;;19.35;100.00
73240;BME280;61452;40.054;4.110;2023-11-21T00:37:48;101674.28;;;19.36;100.00
73240;BME280;61452;40.054;4.110;2023-11-21T00:42:51;101660.25;;;19.34;100.00
73240;BME280;61452;40.054;4.110;2023-11-21T00:47:53;101654.06;;;19.34;100.00
73240;BME280;61452;40.054;4.110;2023-11-21T00:52:56;101646.19;;;19.32;100.00
73240;BME280;61452;40.054;4.110;2023-11-21T00:57:58;101644.38;;;19.33;100.00
73240;BME280;61452;40.054;4.110;2023-11-21T01:03:00;101647.03;;;19.33;100.00
73240;BME280;61452;40.054;4.110;2023-11-21T01:08:04;101648.00;;;19.32;100.00
73240;BME280;61452;40.054;4.110;2023-11-21T01:13:07;101655.03;;;19.33;100.00
73240;BME280;61452;40.054;4.110;2023-11-21T01:18:09;101660.34;;;19.33;100.00
73240;BME280;61452;40.054;4.110;2023-11-21T01:23:12;101671.00;;;19.33;100.00
73240;BME280;61452;40.054;4.110;2023-11-21T01:28:14;101677.16;;;19.33;100.00
73240;BME280;61452;40.054;4.110;2023-11-21T01:33:16;101683.56;;;19.31;100.00
73240;BME280;61452;40.054;4.110;2023-11-21T01:38:19;101672.06;;;19.30;100.00
73240;BME280;61452;40.054;4.110;2023-11-21T01:43:21;101674.72;;;19.30;100.00
73240;BME280;61452;40.054;4.110;2023-11-21T01:48:24;101660.56;;;19.30;100.00
73240;BME280;61452;40.054;4.110;2023-11-21T01:53:26;101653.31;;;19.32;100.00
73240;BME280;61452;40.054;4.110;2023-11-21T01:58:31;101648.00;;;19.32;100.00
73240;BME280;61452;40.054;4.110;2023-11-21T02:03:34;101651.66;;;19.31;100.00
73240;BME280;61452;40.054;4.110;2023-11-21T02:08:37;101657.81;;;19.31;100.00
73240;BME280;61452;40.054;4.110;2023-11-21T02:13:39;101633.03;;;19.31;100.00
73240;BME280;61452;40.054;4.110;2023-11-21T02:18:45;101625.03;;;19.31;100.00
73240;BME280;61452;40.054;4.110;2023-11-21T02:23:49;101619.72;;;19.31;100.00
73240;BME280;61452;40.054;4.110;2023-11-21T02:28:53;101604.06;;;19.26;100.00
73240;BME280;61452;40.054;4.110;2023-11-21T02:33:55;101611.00;;;19.29;100.00
73240;BME280;61452;40.054;4.110;2023-11-21T02:38:57;101592.25;;;19.30;100.00
73240;BME280;61452;40.054;4.110;2023-11-21T02:43:59;101578.13;;;19.30;100.00
73240;BME280;61452;40.054;4.110;2023-11-21T02:49:05;101578.97;;;19.30;100.00
73240;BME280;61452;40.054;4.110;2023-11-21T02:54:12;101591.41;;;19.30;100.00
73240;BME280;61452;40.054;4.110;2023-11-21T02:59:14;101597.69;;;19.29;100.00
73240;BME280;61452;40.054;4.110;2023-11-21T03:04:17;101597.69;;;19.29;100.00
73240;BME280;61452;40.054;4.110;2023-11-21T03:09:19;101590.66;;;19.28;100.00
73240;BME280;61452;40.054;4.110;2023-11-21T03:14:22;101575.66;;;19.27;100.00
73240;BME280;61452;40.054;4.110;2023-11-21T03:19:24;101550.75;;;19.28;100.00
73240;BME280;61452;40.054;4.110;2023-11-21T03:24:26;101524.25;;;19.26;100.00
73240;BME280;61452;40.054;4.110;2023-11-21T03:29:28;101512.78;;;19.26;100.00
73240;BME280;61452;40.054;4.110;2023-11-21T03:34:30;101503.84;;;19.27;100.00
73240;BME280;61452;40.054;4.110;2023-11-21T03:39:32;101516.28;;;19.26;100.00
73240;BME280;61452;40.054;4.110;2023-11-21T03:44:35;101513.41;;;19.29;100.00
73240;BME280;61452;40.054;4.110;2023-11-21T03:49:37;101513.31;;;19.31;100.00
73240;BME280;61452;40.054;4.110;2023-11-21T03:54:39;101503.63;;;19.30;100.00
73240;BME280;61452;40.054;4.110;2023-11-21T03:59:43;101494.78;;;19.29;100.00
73240;BME280;61452;40.054;4.110;2023-11-21T04:04:45;101494.78;;;19.29;100.00
73240;BME280;61452;40.054;4.110;2023-11-21T04:09:48;101493.00;;;19.30;100.00
73240;BME280;61452;40.054;4.110;2023-11-21T04:14:50;101496.59;;;19.29;100.00
73240;BME280;61452;40.054;4.110;2023-11-21T04:19:54;101506.19;;;19.31;100.00
73240;BME280;61452;40.054;4.110;2023-11-21T04:24:57;101511.50;;;19.31;100.00
73240;BME280;61452;40.054;4.110;2023-11-21T04:29:59;101535.44;;;19.31;100.00
73240;BME280;61452;40.054;4.110;2023-11-21T04:35:02;101547.75;;;19.32;100.00
73240;BME280;61452;40.054;4.110;2023-11-21T04:40:06;101560.22;;;19.32;100.00
73240;BME280;61452;40.054;4.110;2023-11-21T04:45:09;101577.03;;;19.32;100.00
73240;BME280;61452;40.054;4.110;2023-11-21T04:50:14;101598.44;;;19.31;100.00
73240;BME280;61452;40.054;4.110;2023-11-21T04:55:16;101608.09;;;19.32;100.00
73240;BME280;61452;40.054;4.110;2023-11-21T05:00:18;101617.78;;;19.33;100.00
73240;BME280;61452;40.054;4.110;2023-11-21T05:05:20;101619.59;;;19.32;100.00
73240;BME280;61452;40.054;4.110;2023-11-21T05:10:22;101612.78;;;19.28;100.00
73240;BME280;61452;40.054;4.110;2023-11-21T05:15:24;101608.03;;;19.21;100.00
73240;BME280;61452;40.054;4.110;2023-11-21T05:20:27;101604.50;;;19.20;100.00
73240;BME280;61452;40.054;4.110;2023-11-21T05:25:29;101601.97;;;19.19;100.00
73240;BME280;61452;40.054;4.110;2023-11-21T05:30:31;101594.50;;;19.24;100.00
73240;BME280;61452;40.054;4.110;2023-11-21T05:35:34;101601.19;;;19.29;100.00
73240;BME280;61452;40.054;4.110;2023-11-21T05:40:36;101600.97;;;19.32;100.00
73240;BME280;61452;40.054;4.110;2023-11-21T05:45:39;101608.94;;;19.32;100.00
73240;BME280;61452;40.054;4.110;2023-11-21T05:50:41;101615.13;;;19.33;100.00
73240;BME280;61452;40.054;4.110;2023-11-21T05:55:43;101606.28;;;19.32;100.00
73240;BME280;61452;40.054;4.110;2023-11-21T06:00:45;101607.28;;;19.31;100.00
73240;BME280;61452;40.054;4.110;2023-11-21T06:05:47;101618.13;;;19.28;100.00
73240;BME280;61452;40.054;4.110;2023-11-21T06:10:50;101618.00;;;19.30;100.00
73240;BME280;61452;40.054;4.110;2023-11-21T06:15:52;101624.19;;;19.30;100.00
73240;BME280;61452;40.054;4.110;2023-11-21T06:20:54;101615.25;;;19.31;100.00
73240;BME280;61452;40.054;4.110;2023-11-21T06:25:56;101615.25;;;19.31;100.00
73240;BME280;61452;40.054;4.110;2023-11-21T06:30:59;101625.75;;;19.33;100.00
73240;BME280;61452;40.054;4.110;2023-11-21T06:36:07;101597.59;;;19.30;100.00
73240;BME280;61452;40.054;4.110;2023-11-21T06:41:09;101609.19;;;19.29;100.00
73240;BME280;61452;40.054;4.110;2023-11-21T06:46:12;101612.78;;;19.28;100.00
73240;BME280;61452;40.054;4.110;2023-11-21T06:51:16;101616.31;;;19.29;100.00
73240;BME280;61452;40.054;4.110;2023-11-21T06:56:19;101624.19;;;19.30;100.00
73240;BME280;61452;40.054;4.110;2023-11-21T07:01:21;101615.13;;;19.33;100.00
73240;BME280;61452;40.054;4.110;2023-11-21T07:06:23;101630.88;;;19.36;100.00
73240;BME280;61452;40.054;4.110;2023-11-21T07:11:25;101638.44;;;19.29;100.00
73240;BME280;61452;40.054;4.110;2023-11-21T07:16:27;101640.69;;;19.23;100.00
73240;BME280;61452;40.054;4.110;2023-11-21T07:21:32;101641.75;;;19.20;100.00
73240;BME280;61452;40.054;4.110;2023-11-21T07:26:35;101634.75;;;19.19;100.00
73240;BME280;61452;40.054;4.110;2023-11-21T07:31:37;101660.78;;;19.14;100.00
73240;BME280;61452;40.054;4.110;2023-11-21T07:36:40;101672.81;;;19.20;100.00
73240;BME280;61452;40.054;4.110;2023-11-21T07:41:42;101686.31;;;19.29;100.00
73240;BME280;61452;40.054;4.110;2023-11-21T07:46:51;101683.22;;;19.35;100.00
73240;BME280;61452;40.054;4.110;2023-11-21T07:51:53;101671.13;;;19.31;100.00
73240;BME280;61452;40.054;4.110;2023-11-21T07:56:55;101678.34;;;19.29;100.00
73240;BME280;61452;40.054;4.110;2023-11-21T08:01:57;101676.22;;;19.34;100.00
73240;BME280;61452;40.054;4.110;2023-11-21T08:06:59;101658.47;;;19.22;100.00
73240;BME280;61452;40.054;4.110;2023-11-21T08:12:02;101671.13;;;19.31;100.00
73240;BME280;61452;40.054;4.110;2023-11-21T08:17:04;101686.53;;;19.26;100.00
73240;BME280;61452;40.054;4.110;2023-11-21T08:22:08;101700.25;;;19.20;100.00
73240;BME280;61452;40.054;4.110;2023-11-21T08:27:11;101706.66;;;19.18;100.00
73240;BME280;61452;40.054;4.110;2023-11-21T08:32:13;101690.28;;;19.24;100.00
73240;BME280;61452;40.054;4.110;2023-11-21T08:37:15;101693.13;;;19.21;100.00
73240;BME280;61452;40.054;4.110;2023-11-21T08:42:17;101678.34;;;19.17;100.00
73240;BME280;61452;40.054;4.110;2023-11-21T08:47:19;101680.94;;;18.53;100.00
73240;BME280;61452;40.054;4.110;2023-11-21T08:52:21;101697.44;;;18.19;100.00
73240;BME280;61452;40.054;4.110;2023-11-21T08:57:25;101700.28;;;18.16;100.00
73240;BME280;61452;40.054;4.110;2023-11-21T09:02:27;101699.03;;;18.22;100.00
73240;BME280;61452;40.054;4.110;2023-11-21T09:07:29;101706.25;;;18.19;100.00
73240;BME280;61452;40.054;4.110;2023-11-21T09:12:32;101683.66;;;18.00;100.00
73240;BME280;61452;40.054;4.110;2023-11-21T09:17:34;101718.97;;;17.88;100.00
73240;BME280;61452;40.054;4.110;2023-11-21T09:22:37;101690.06;;;17.83;100.00
73240;BME280;61452;40.054;4.110;2023-11-21T09:27:39;101706.09;;;17.82;100.00
73240;BME280;61452;40.054;4.110;2023-11-21T09:32:41;101692.91;;;17.80;100.00
73240;BME280;61452;40.054;4.110;2023-11-21T09:37:48;101688.41;;;17.39;100.00
73240;BME280;61452;40.054;4.110;2023-11-21T09:42:55;101676.69;;;17.15;100.00
73240;BME280;61452;40.054;4.110;2023-11-21T09:48:01;101663.81;;;17.09;100.00
73240;BME280;61452;40.054;4.110;2023-11-21T09:53:17;101665.22;;;17.01;100.00
73240;BME280;61452;40.054;4.110;2023-11-21T09:58:20;101668.88;;;16.98;100.00
73240;BME280;61452;40.054;4.110;2023-11-21T10:03:24;101646.66;;;17.15;100.00
73240;BME280;61452;40.054;4.110;2023-11-21T10:08:27;101644.66;;;17.04;100.00
73240;BME280;61452;40.054;4.110;2023-11-21T10:13:47;101639.16;;;16.93;100.00
73240;BME280;61452;40.054;4.110;2023-11-21T10:18:53;101630.19;;;16.81;100.00
73240;BME280;61452;40.054;4.110;2023-11-21T10:24:11;101596.59;;;16.82;100.00
73240;BME280;61452;40.054;4.110;2023-11-21T10:29:14;101589.84;;;17.05;100.00
73240;BME280;61452;40.054;4.110;2023-11-21T10:34:19;101599.34;;;17.09;100.00
73240;BME280;61452;40.054;4.110;2023-11-21T10:39:22;101595.91;;;17.21;100.00
73240;BME280;61452;40.054;4.110;2023-11-21T10:44:25;101584.69;;;17.30;100.00
73240;BME280;61452;40.054;4.110;2023-11-21T10:49:28;101578.53;;;17.29;100.00
73240;BME280;61452;40.054;4.110;2023-11-21T10:54:31;101568.69;;;17.31;100.00
73240;BME280;61452;40.054;4.110;2023-11-21T10:59:33;101558.72;;;17.35;100.00
73240;BME280;61452;40.054;4.110;2023-11-21T11:04:35;101560.59;;;17.20;100.00
73240;BME280;61452;40.054;4.110;2023-11-21T11:09:40;101561.63;;;17.18;100.00
73240;BME280;61452;40.054;4.110;2023-11-21T11:14:43;101553.03;;;17.14;100.00
73240;BME280;61452;40.054;4.110;2023-11-21T11:19:47;101542.28;;;17.16;100.00
73240;BME280;61452;40.054;4.110;2023-11-21T11:36:02;101518.50;;;16.87;100.00
73240;BME280;61452;40.054;4.110;2023-11-21T11:41:07;101501.44;;;16.91;100.00
73240;BME280;61452;40.054;4.110;2023-11-21T11:46:11;101477.50;;;16.93;100.00
73240;BME280;61452;40.054;4.110;2023-11-21T11:51:17;101466.44;;;16.86;100.00
73240;BME280;61452;40.054;4.110;2023-11-21T11:56:31;101470.50;;;16.92;100.00
73240;BME280;61452;40.054;4.110;2023-11-21T12:01:36;101465.41;;;17.03;100.00
73240;BME280;61452;40.054;4.110;2023-11-21T12:06:38;101451.34;;;17.15;100.00
73240;BME280;61452;40.054;4.110;2023-11-21T12:11:41;101447.53;;;17.19;100.00
73240;BME280;61452;40.054;4.110;2023-11-21T12:16:43;101449.88;;;17.24;100.00
73240;BME280;61452;40.054;4.110;2023-11-21T12:21:45;101439.66;;;17.18;100.00
73240;BME280;61452;40.054;4.110;2023-11-21T12:26:48;101438.31;;;17.25;100.00
73240;BME280;61452;40.054;4.110;2023-11-21T12:31:50;101425.91;;;17.25;100.00
73240;BME280;61452;40.054;4.110;2023-11-21T12:36:52;101411.63;;;17.28;100.00
73240;BME280;61452;40.054;4.110;2023-11-21T12:41:56;101420.38;;;17.28;100.00
73240;BME280;61452;40.054;4.110;2023-11-21T12:46:59;101422.31;;;17.26;100.00
73240;BME280;61452;40.054;4.110;2023-11-21T12:52:01;101415.50;;;17.22;100.00
73240;BME280;61452;40.054;4.110;2023-11-21T12:57:05;101418.47;;;17.18;100.00
73240;BME280;61452;40.054;4.110;2023-11-21T13:02:12;101416.88;;;17.15;100.00
73240;BME280;61452;40.054;4.110;2023-11-21T13:07:16;101422.81;;;17.19;100.00
73240;BME280;61452;40.054;4.110;2023-11-21T13:12:24;101427.25;;;17.18;100.00
73240;BME280;61452;40.054;4.110;2023-11-21T13:17:26;101419.97;;;17.22;100.00
73240;BME280;61452;40.054;4.110;2023-11-21T13:22:28;101410.75;;;17.27;100.00
73240;BME280;61452;40.054;4.110;2023-11-21T13:27:30;101407.34;;;17.25;100.00
73240;BME280;61452;40.054;4.110;2023-11-21T13:32:34;101408.84;;;17.29;100.00
73240;BME280;61452;40.054;4.110;2023-11-21T13:37:36;101397.50;;;17.27;100.00
73240;BME280;61452;40.054;4.110;2023-11-21T13:42:38;101400.88;;;17.29;100.00
73240;BME280;61452;40.054;4.110;2023-11-21T13:47:40;101395.59;;;17.29;100.00
73240;BME280;61452;40.054;4.110;2023-11-21T13:52:43;101398.78;;;17.22;100.00
73240;BME280;61452;40.054;4.110;2023-11-21T13:57:46;101395.13;;;17.23;100.00
73240;BME280;61452;40.054;4.110;2023-11-21T14:02:51;101411.41;;;17.31;100.00
73240;BME280;61452;40.054;4.110;2023-11-21T14:07:53;101426.03;;;17.36;100.00
73240;BME280;61452;40.054;4.110;2023-11-21T14:12:57;101400.84;;;17.17;100.00
73240;BME280;61452;40.054;4.110;2023-11-21T14:18:00;101401.19;;;17.25;100.00
73240;BME280;61452;40.054;4.110;2023-11-21T14:23:07;101402.06;;;17.25;100.00
73240;BME280;61452;40.054;4.110;2023-11-21T14:28:09;101382.97;;;17.20;100.00
73240;BME280;61452;40.054;4.110;2023-11-21T14:33:13;101406.50;;;17.25;100.00
73240;BME280;61452;40.054;4.110;2023-11-21T14:38:18;101391.81;;;17.46;100.00
73240;BME280;61452;40.054;4.110;2023-11-21T14:43:20;101393.25;;;17.64;100.00
73240;BME280;61452;40.054;4.110;2023-11-21T14:48:23;101390.06;;;17.85;100.00
73240;BME280;61452;40.054;4.110;2023-11-21T14:53:44;101380.00;;;17.90;100.00
73240;BME280;61452;40.054;4.110;2023-11-21T14:58:56;101396.22;;;17.98;100.00
73240;BME280;61452;40.054;4.110;2023-11-21T15:03:59;101389.84;;;18.00;100.00
73240;BME280;61452;40.054;4.110;2023-11-21T15:09:01;101383.03;;;18.09;100.00
73240;BME280;61452;40.054;4.110;2023-11-21T15:14:09;101387.19;;;18.13;100.00
73240;BME280;61452;40.054;4.110;2023-11-21T15:19:15;101386.09;;;18.15;100.00
73240;BME280;61452;40.054;4.110;2023-11-21T15:24:20;101395.56;;;18.19;100.00
73240;BME280;61452;40.054;4.110;2023-11-21T15:29:22;101388.47;;;18.20;100.00
73240;BME280;61452;40.054;4.110;2023-11-21T15:34:24;101379.06;;;18.27;100.00
73240;BME280;61452;40.054;4.110;2023-11-21T15:39:30;101384.28;;;18.29;100.00
73240;BME280;61452;40.054;4.110;2023-11-21T15:44:32;101383.44;;;18.28;100.00
73240;BME280;61452;40.054;4.110;2023-11-21T15:49:35;101392.91;;;18.32;100.00
73240;BME280;61452;40.054;4.110;2023-11-21T15:54:39;101386.50;;;18.35;100.00
73240;BME280;61452;40.054;4.110;2023-11-21T15:59:42;101379.38;;;18.35;100.00
73240;BME280;61452;40.054;4.110;2023-11-21T16:04:45;101382.78;;;18.37;100.00
73240;BME280;61452;40.054;4.110;2023-11-21T16:09:48;101399.44;;;18.39;100.00
73240;BME280;61452;40.054;4.110;2023-11-21T16:14:51;101382.69;;;18.39;100.00
73240;BME280;61452;40.054;4.110;2023-11-21T16:19:53;101381.94;;;18.37;100.00
73240;BME280;61452;40.054;4.110;2023-11-21T16:24:58;101392.56;;;18.37;100.00
73240;BME280;61452;40.054;4.110;2023-11-21T16:30:00;101404.16;;;18.36;100.00
73240;BME280;61452;40.054;4.110;2023-11-21T16:35:05;101397.88;;;18.37;100.00
73240;BME280;61452;40.054;4.110;2023-11-21T16:40:08;101396.19;;;18.36;100.00
73240;BME280;61452;40.054;4.110;2023-11-21T16:45:11;101396.06;;;18.37;100.00
73240;BME280;61452;40.054;4.110;2023-11-21T16:50:13;101392.31;;;18.40;100.00
73240;BME280;61452;40.054;4.110;2023-11-21T16:55:15;101394.13;;;18.39;100.00
73240;BME280;61452;40.054;4.110;2023-11-21T17:00:18;101405.50;;;18.41;100.00
73240;BME280;61452;40.054;4.110;2023-11-21T17:05:27;101401.81;;;18.44;100.00
73240;BME280;61452;40.054;4.110;2023-11-21T17:10:30;101420.91;;;18.49;100.00
73240;BME280;61452;40.054;4.110;2023-11-21T17:15:32;101414.13;;;18.45;100.00
73240;BME280;61452;40.054;4.110;2023-11-21T17:20:34;101429.09;;;18.46;100.00
73240;BME280;61452;40.054;4.110;2023-11-21T17:25:36;101425.47;;;18.47;100.00
73240;BME280;61452;40.054;4.110;2023-11-21T17:30:38;101428.13;;;18.47;100.00
73240;BME280;61452;40.054;4.110;2023-11-21T17:35:41;101427.28;;;18.46;100.00
73240;BME280;61452;40.054;4.110;2023-11-21T17:40:46;101436.09;;;18.47;100.00
73240;BME280;61452;40.054;4.110;2023-11-21T17:45:48;101436.84;;;18.49;100.00
73240;BME280;61452;40.054;4.110;2023-11-21T17:50:50;101430.78;;;18.47;100.00
73240;BME280;61452;40.054;4.110;2023-11-21T17:55:52;101426.00;;;18.52;100.00
73240;BME280;61452;40.054;4.110;2023-11-21T18:00:55;101424.31;;;18.51;100.00
73240;BME280;61452;40.054;4.110;2023-11-21T18:05:57;101429.63;;;18.51;100.00
73240;BME280;61452;40.054;4.110;2023-11-21T18:10:59;101436.75;;;18.50;100.00
73240;BME280;61452;40.054;4.110;2023-11-21T18:16:02;101430.06;;;18.45;100.00
73240;BME280;61452;40.054;4.110;2023-11-21T18:21:04;101435.78;;;18.51;100.00
73240;BME280;61452;40.054;4.110;2023-11-21T18:26:09;101431.53;;;18.49;100.00
73240;BME280;61452;40.054;4.110;2023-11-21T18:31:11;101428.66;;;18.52;100.00
73240;BME280;61452;40.054;4.110;2023-11-21T18:36:13;101431.03;;;18.56;100.00
73240;BME280;61452;40.054;4.110;2023-11-21T18:41:22;101447.69;;;18.58;100.00
73240;BME280;61452;40.054;4.110;2023-11-21T18:46:25;101422.81;;;18.59;100.00
73240;BME280;61452;40.054;4.110;2023-11-21T18:51:27;101417.41;;;18.61;100.00
73240;BME280;61452;40.054;4.110;2023-11-21T18:56:30;101417.41;;;18.61;100.00
73240;BME280;61452;40.054;4.110;2023-11-21T19:01:32;101422.22;;;18.56;100.00
73240;BME280;61452;40.054;4.110;2023-11-21T19:06:35;101445.34;;;18.54;100.00
73240;BME280;61452;40.054;4.110;2023-11-21T19:11:38;101493.00;;;18.57;100.00
73240;BME280;61452;40.054;4.110;2023-11-21T19:16:40;101489.75;;;18.65;100.00
73240;BME280;61452;40.054;4.110;2023-11-21T19:21:43;101452.47;;;18.66;100.00
73240;BME280;61452;40.054;4.110;2023-11-21T19:26:45;101447.25;;;18.65;100.00
73240;BME280;61452;40.054;4.110;2023-11-21T19:31:47;101483.50;;;18.66;100.00
73240;BME280;61452;40.054;4.110;2023-11-21T19:36:50;101494.88;;;18.68;100.00
73240;BME280;61452;40.054;4.110;2023-11-21T19:41:53;101483.06;;;18.72;100.00
73240;BME280;61452;40.054;4.110;2023-11-21T19:46:55;101492.41;;;18.65;100.00
73240;BME280;61452;40.054;4.110;2023-11-21T19:51:57;101491.69;;;18.63;100.00
73240;BME280;61452;40.054;4.110;2023-11-21T19:56:59;101506.78;;;18.62;100.00
73240;BME280;61452;40.054;4.110;2023-11-21T20:02:06;101498.06;;;18.60;100.00
73240;BME280;61452;40.054;4.110;2023-11-21T20:07:09;101476.91;;;18.58;100.00
73240;BME280;61452;40.054;4.110;2023-11-21T20:12:11;101483.94;;;18.59;100.00
73240;BME280;61452;40.054;4.110;2023-11-21T20:17:14;101467.28;;;18.57;100.00
73240;BME280;61452;40.054;4.110;2023-11-21T20:22:16;101476.91;;;18.58;100.00
73240;BME280;61452;40.054;4.110;2023-11-21T20:27:20;101469.69;;;18.61;100.00
73240;BME280;61452;40.054;4.110;2023-11-21T20:32:22;101456.66;;;18.57;100.00
73240;BME280;61452;40.054;4.110;2023-11-21T20:37:26;101493.28;;;18.65;100.00
73240;BME280;61452;40.054;4.110;2023-11-21T20:42:28;101469.25;;;18.67;100.00
73240;BME280;61452;40.054;4.110;2023-11-21T20:47:30;101469.59;;;18.62;100.00
73240;BME280;61452;40.054;4.110;2023-11-21T20:52:35;101476.81;;;18.60;100.00
73240;BME280;61452;40.054;4.110;2023-11-21T20:57:37;101491.06;;;18.59;100.00
73240;BME280;61452;40.054;4.110;2023-11-21T21:02:41;101489.16;;;18.61;100.00
73240;BME280;61452;40.054;4.110;2023-11-21T21:07:44;101480.22;;;18.62;100.00
73240;BME280;61452;40.054;4.110;2023-11-21T21:12:46;101460.78;;;18.62;100.00
73240;BME280;61452;40.054;4.110;2023-11-21T21:17:48;101477.66;;;18.61;100.00
73240;BME280;61452;40.054;4.110;2023-11-21T21:22:50;101491.69;;;18.63;100.00
73240;BME280;61452;40.054;4.110;2023-11-21T21:27:55;101469.69;;;18.61;100.00
73240;BME280;61452;40.054;4.110;2023-11-21T21:32:57;101472.34;;;18.61;100.00
73240;BME280;61452;40.054;4.110;2023-11-21T21:38:02;101480.22;;;18.62;100.00
73240;BME280;61452;40.054;4.110;2023-11-21T21:43:05;101498.59;;;18.65;100.00
73240;BME280;61452;40.054;4.110;2023-11-21T21:48:07;101476.72;;;18.62;100.00
73240;BME280;61452;40.054;4.110;2023-11-21T21:53:10;101472.44;;;18.59;100.00
73240;BME280;61452;40.054;4.110;2023-11-21T21:58:14;101501.16;;;18.67;100.00
73240;BME280;61452;40.054;4.110;2023-11-21T22:03:16;101487.97;;;18.65;100.00
73240;BME280;61452;40.054;4.110;2023-11-21T22:08:18;101547.19;;;18.67;100.00
73240;BME280;61452;40.054;4.110;2023-11-21T22:13:20;101503.91;;;18.65;100.00
73240;BME280;61452;40.054;4.110;2023-11-21T22:18:23;101519.13;;;18.63;100.00
73240;BME280;61452;40.054;4.110;2023-11-21T22:23:26;101510.06;;;18.53;100.00
73240;BME280;61452;40.054;4.110;2023-11-21T22:28:28;101523.78;;;18.59;100.00
73240;BME280;61452;40.054;4.110;2023-11-21T22:33:30;101513.50;;;18.55;100.00
73240;BME280;61452;40.054;4.110;2023-11-21T22:38:32;101543.47;;;18.57;100.00
73240;BME280;61452;40.054;4.110;2023-11-21T22:43:34;101521.97;;;18.60;100.00
73240;BME280;61452;40.054;4.110;2023-11-21T22:48:37;101519.22;;;18.62;100.00
73240;BME280;61452;40.054;4.110;2023-11-21T22:53:39;101504.03;;;18.64;100.00
73240;BME280;61452;40.054;4.110;2023-11-21T22:58:41;101505.09;;;18.61;100.00
73240;BME280;61452;40.054;4.110;2023-11-21T23:03:43;101500.97;;;18.57;100.00
73240;BME280;61452;40.054;4.110;2023-11-21T23:08:47;101490.34;;;18.57;100.00
73240;BME280;61452;40.054;4.110;2023-11-21T23:13:49;101461.81;;;18.59;100.00
73240;BME280;61452;40.054;4.110;2023-11-21T23:18:52;101452.78;;;18.62;100.00
73240;BME280;61452;40.054;4.110;2023-11-21T23:23:58;101457.34;;;18.59;100.00
73240;BME280;61452;40.054;4.110;2023-11-21T23:29:08;101461.97;;;18.57;100.00
73240;BME280;61452;40.054;4.110;2023-11-21T23:34:11;101438.03;;;18.57;100.00
73240;BME280;61452;40.054;4.110;2023-11-21T23:39:13;101453.25;;;18.55;100.00
73240;BME280;61452;40.054;4.110;2023-11-21T23:44:16;101431.13;;;18.55;100.00
73240;BME280;61452;40.054;4.110;2023-11-21T23:49:18;101433.00;;;18.53;100.00
73240;BME280;61452;40.054;4.110;2023-11-21T23:54:20;101425.88;;;18.53;100.00
73240;BME280;61452;40.054;4.110;2023-11-21T23:59:24;101443.63;;;18.53;100.00
